sensor_id;sensor_type;location;lat;lon;timestamp;P1;durP1;ratioP1;P2;durP2;ratioP2
10719;SDS011;5411;58.386;15.560;2023-06-24T00:00:32;3.17;;;2.87;;
10719;SDS011;5411;58.386;15.560;2023-06-24T00:03:05;3.07;;;2.87;;
10719;SDS011;5411;58.386;15.560;2023-06-24T00:05:42;3.73;;;2.53;;
10719;SDS011;5411;58.386;15.560;2023-06-24T00:08:16;2.97;;;2.77;;
10719;SDS011;5411;58.386;15.560;2023-06-24T00:10:47;3.20;;;2.60;;
10719;SDS011;5411;58.386;15.560;2023-06-24T00:13:16;3.17;;;2.97;;
10719;SDS011;5411;58.386;15.560;2023-06-24T00:15:45;3.13;;;2.93;;
10719;SDS011;5411;58.386;15.560;2023-06-24T00:18:17;3.40;;;2.63;;
10719;SDS011;5411;58.386;15.560;2023-06-24T00:20:46;2.70;;;2.50;;
10719;SDS011;5411;58.386;15.560;2023-06-24T00:23:16;2.63;;;2.43;;
10719;SDS011;5411;58.386;15.560;2023-06-24T00:25:55;2.57;;;2.37;;
10719;SDS011;5411;58.386;15.560;2023-06-24T00:28:34;3.13;;;2.87;;
10719;SDS011;5411;58.386;15.560;2023-06-24T00:31:05;2.80;;;2.60;;
10719;SDS011;5411;58.386;15.560;2023-06-24T00:33:34;2.60;;;2.40;;
10719;SDS011;5411;58.386;15.560;2023-06-24T00:36:03;2.63;;;2.43;;
10719;SDS011;5411;58.386;15.560;2023-06-24T00:38:33;2.87;;;2.67;;
10719;SDS011;5411;58.386;15.560;2023-06-24T00:41:03;2.70;;;2.50;;
10719;SDS011;5411;58.386;15.560;2023-06-24T00:43:32;2.60;;;2.40;;
10719;SDS011;5411;58.386;15.560;2023-06-24T00:46:00;2.37;;;2.17;;
10719;SDS011;5411;58.386;15.560;2023-06-24T00:48:29;2.97;;;2.70;;
10719;SDS011;5411;58.386;15.560;2023-06-24T00:50:59;2.60;;;2.40;;
10719;SDS011;5411;58.386;15.560;2023-06-24T00:53:28;3.33;;;2.87;;
10719;SDS011;5411;58.386;15.560;2023-06-24T00:55:57;2.47;;;2.27;;
10719;SDS011;5411;58.386;15.560;2023-06-24T00:58:37;2.80;;;2.60;;
10719;SDS011;5411;58.386;15.560;2023-06-24T01:01:07;2.80;;;2.60;;
10719;SDS011;5411;58.386;15.560;2023-06-24T01:03:43;2.93;;;2.73;;
10719;SDS011;5411;58.386;15.560;2023-06-24T01:06:50;2.50;;;2.30;;
10719;SDS011;5411;58.386;15.560;2023-06-24T01:09:18;2.87;;;2.63;;
10719;SDS011;5411;58.386;15.560;2023-06-24T01:11:47;2.97;;;2.57;;
10719;SDS011;5411;58.386;15.560;2023-06-24T01:14:17;3.00;;;2.37;;
10719;SDS011;5411;58.386;15.560;2023-06-24T01:16:48;2.27;;;2.17;;
10719;SDS011;5411;58.386;15.560;2023-06-24T01:19:37;3.07;;;2.87;;
10719;SDS011;5411;58.386;15.560;2023-06-24T01:22:35;2.90;;;2.60;;
10719;SDS011;5411;58.386;15.560;2023-06-24T01:25:20;4.13;;;2.80;;
10719;SDS011;5411;58.386;15.560;2023-06-24T01:28:16;3.43;;;2.70;;
10719;SDS011;5411;58.386;15.560;2023-06-24T01:31:31;2.63;;;2.43;;
10719;SDS011;5411;58.386;15.560;2023-06-24T01:34:10;2.87;;;2.67;;
10719;SDS011;5411;58.386;15.560;2023-06-24T01:36:47;3.00;;;2.80;;
10719;SDS011;5411;58.386;15.560;2023-06-24T01:39:22;3.70;;;2.97;;
10719;SDS011;5411;58.386;15.560;2023-06-24T01:41:59;2.67;;;2.47;;
10719;SDS011;5411;58.386;15.560;2023-06-24T01:44:34;3.47;;;3.17;;
10719;SDS011;5411;58.386;15.560;2023-06-24T01:47:07;3.20;;;2.90;;
10719;SDS011;5411;58.386;15.560;2023-06-24T01:49:38;4.47;;;3.00;;
10719;SDS011;5411;58.386;15.560;2023-06-24T01:52:09;3.70;;;2.83;;
10719;SDS011;5411;58.386;15.560;2023-06-24T01:54:39;3.93;;;2.83;;
10719;SDS011;5411;58.386;15.560;2023-06-24T01:57:09;3.50;;;2.33;;
10719;SDS011;5411;58.386;15.560;2023-06-24T01:59:40;3.00;;;2.70;;
10719;SDS011;5411;58.386;15.560;2023-06-24T02:02:21;3.20;;;2.90;;
10719;SDS011;5411;58.386;15.560;2023-06-24T02:04:58;2.83;;;2.57;;
10719;SDS011;5411;58.386;15.560;2023-06-24T02:07:28;2.70;;;2.50;;
10719;SDS011;5411;58.386;15.560;2023-06-24T02:09:58;2.67;;;2.47;;
10719;SDS011;5411;58.386;15.560;2023-06-24T02:12:27;3.13;;;2.90;;
10719;SDS011;5411;58.386;15.560;2023-06-24T02:14:59;2.60;;;2.40;;
10719;SDS011;5411;58.386;15.560;2023-06-24T02:17:33;3.20;;;2.80;;
10719;SDS011;5411;58.386;15.560;2023-06-24T02:20:05;3.70;;;2.80;;
10719;SDS011;5411;58.386;15.560;2023-06-24T02:22:36;3.90;;;3.50;;
10719;SDS011;5411;58.386;15.560;2023-06-24T02:25:08;3.17;;;2.87;;
10719;SDS011;5411;58.386;15.560;2023-06-24T02:27:36;3.67;;;3.37;;
10719;SDS011;5411;58.386;15.560;2023-06-24T02:30:06;2.83;;;2.63;;
10719;SDS011;5411;58.386;15.560;2023-06-24T02:32:41;3.57;;;2.87;;
10719;SDS011;5411;58.386;15.560;2023-06-24T02:35:09;3.10;;;2.83;;
10719;SDS011;5411;58.386;15.560;2023-06-24T02:37:39;3.30;;;3.00;;
10719;SDS011;5411;58.386;15.560;2023-06-24T02:40:08;3.40;;;3.10;;
10719;SDS011;5411;58.386;15.560;2023-06-24T02:42:37;3.17;;;2.87;;
10719;SDS011;5411;58.386;15.560;2023-06-24T02:45:06;3.57;;;3.27;;
10719;SDS011;5411;58.386;15.560;2023-06-24T02:47:36;3.73;;;3.43;;
10719;SDS011;5411;58.386;15.560;2023-06-24T02:50:07;3.50;;;3.20;;
10719;SDS011;5411;58.386;15.560;2023-06-24T02:52:37;4.30;;;3.90;;
10719;SDS011;5411;58.386;15.560;2023-06-24T02:55:06;3.50;;;3.20;;
10719;SDS011;5411;58.386;15.560;2023-06-24T02:57:36;3.77;;;3.47;;
10719;SDS011;5411;58.386;15.560;2023-06-24T03:00:11;3.43;;;3.20;;
10719;SDS011;5411;58.386;15.560;2023-06-24T03:02:41;3.10;;;2.90;;
10719;SDS011;5411;58.386;15.560;2023-06-24T03:05:13;3.00;;;2.80;;
10719;SDS011;5411;58.386;15.560;2023-06-24T03:07:44;3.40;;;3.20;;
10719;SDS011;5411;58.386;15.560;2023-06-24T03:10:16;4.63;;;2.80;;
10719;SDS011;5411;58.386;15.560;2023-06-24T03:12:51;3.33;;;3.03;;
10719;SDS011;5411;58.386;15.560;2023-06-24T03:15:22;3.93;;;2.97;;
10719;SDS011;5411;58.386;15.560;2023-06-24T03:17:53;3.37;;;3.07;;
10719;SDS011;5411;58.386;15.560;2023-06-24T03:20:24;3.40;;;3.10;;
10719;SDS011;5411;58.386;15.560;2023-06-24T03:22:53;3.50;;;3.20;;
10719;SDS011;5411;58.386;15.560;2023-06-24T03:25:30;3.20;;;2.90;;
10719;SDS011;5411;58.386;15.560;2023-06-24T03:28:01;3.90;;;2.70;;
10719;SDS011;5411;58.386;15.560;2023-06-24T03:30:34;3.60;;;3.30;;
10719;SDS011;5411;58.386;15.560;2023-06-24T03:33:02;3.17;;;2.97;;
10719;SDS011;5411;58.386;15.560;2023-06-24T03:35:37;3.57;;;3.27;;
10719;SDS011;5411;58.386;15.560;2023-06-24T03:38:11;3.23;;;3.03;;
10719;SDS011;5411;58.386;15.560;2023-06-24T03:40:42;3.37;;;3.07;;
10719;SDS011;5411;58.386;15.560;2023-06-24T03:43:11;3.77;;;3.30;;
10719;SDS011;5411;58.386;15.560;2023-06-24T03:45:42;3.20;;;3.00;;
10719;SDS011;5411;58.386;15.560;2023-06-24T03:48:10;3.67;;;3.37;;
10719;SDS011;5411;58.386;15.560;2023-06-24T03:50:40;4.50;;;3.33;;
10719;SDS011;5411;58.386;15.560;2023-06-24T03:53:09;3.43;;;3.13;;
10719;SDS011;5411;58.386;15.560;2023-06-24T03:55:37;3.43;;;3.07;;
10719;SDS011;5411;58.386;15.560;2023-06-24T03:58:06;3.63;;;3.00;;
10719;SDS011;5411;58.386;15.560;2023-06-24T04:00:35;3.30;;;3.10;;
10719;SDS011;5411;58.386;15.560;2023-06-24T04:03:07;3.33;;;3.07;;
10719;SDS011;5411;58.386;15.560;2023-06-24T04:05:35;3.97;;;3.17;;
10719;SDS011;5411;58.386;15.560;2023-06-24T04:08:06;3.80;;;3.07;;
10719;SDS011;5411;58.386;15.560;2023-06-24T04:10:35;3.63;;;3.33;;
10719;SDS011;5411;58.386;15.560;2023-06-24T04:13:03;3.60;;;3.30;;
10719;SDS011;5411;58.386;15.560;2023-06-24T04:15:31;3.97;;;3.30;;
10719;SDS011;5411;58.386;15.560;2023-06-24T04:18:01;4.43;;;3.20;;
10719;SDS011;5411;58.386;15.560;2023-06-24T04:20:30;3.40;;;3.10;;
10719;SDS011;5411;58.386;15.560;2023-06-24T04:23:01;3.67;;;3.10;;
10719;SDS011;5411;58.386;15.560;2023-06-24T04:25:31;3.10;;;2.90;;
10719;SDS011;5411;58.386;15.560;2023-06-24T04:28:00;3.60;;;3.30;;
10719;SDS011;5411;58.386;15.560;2023-06-24T04:30:30;4.13;;;3.10;;
10719;SDS011;5411;58.386;15.560;2023-06-24T04:32:59;3.93;;;3.63;;
10719;SDS011;5411;58.386;15.560;2023-06-24T04:35:28;6.30;;;3.60;;
10719;SDS011;5411;58.386;15.560;2023-06-24T04:38:02;3.77;;;3.47;;
10719;SDS011;5411;58.386;15.560;2023-06-24T04:40:32;3.50;;;3.20;;
10719;SDS011;5411;58.386;15.560;2023-06-24T04:43:02;3.40;;;3.10;;
10719;SDS011;5411;58.386;15.560;2023-06-24T04:45:30;3.13;;;2.93;;
10719;SDS011;5411;58.386;15.560;2023-06-24T04:48:00;3.80;;;3.50;;
10719;SDS011;5411;58.386;15.560;2023-06-24T04:50:28;3.30;;;2.97;;
10719;SDS011;5411;58.386;15.560;2023-06-24T04:52:57;4.53;;;3.30;;
10719;SDS011;5411;58.386;15.560;2023-06-24T04:55:28;4.87;;;3.90;;
10719;SDS011;5411;58.386;15.560;2023-06-24T04:58:01;4.40;;;3.40;;
10719;SDS011;5411;58.386;15.560;2023-06-24T05:00:29;3.80;;;3.50;;
10719;SDS011;5411;58.386;15.560;2023-06-24T05:02:58;3.90;;;3.60;;
10719;SDS011;5411;58.386;15.560;2023-06-24T05:05:29;3.97;;;3.57;;
10719;SDS011;5411;58.386;15.560;2023-06-24T05:08:01;4.23;;;3.40;;
10719;SDS011;5411;58.386;15.560;2023-06-24T05:10:29;3.40;;;3.10;;
10719;SDS011;5411;58.386;15.560;2023-06-24T05:12:58;6.83;;;3.80;;
10719;SDS011;5411;58.386;15.560;2023-06-24T05:15:31;3.60;;;3.30;;
10719;SDS011;5411;58.386;15.560;2023-06-24T05:18:00;3.67;;;3.20;;
10719;SDS011;5411;58.386;15.560;2023-06-24T05:20:28;4.10;;;2.97;;
10719;SDS011;5411;58.386;15.560;2023-06-24T05:22:57;6.43;;;3.50;;
10719;SDS011;5411;58.386;15.560;2023-06-24T05:25:25;4.10;;;3.70;;
10719;SDS011;5411;58.386;15.560;2023-06-24T05:27:54;3.43;;;3.13;;
10719;SDS011;5411;58.386;15.560;2023-06-24T05:30:22;3.83;;;3.17;;
10719;SDS011;5411;58.386;15.560;2023-06-24T05:32:54;3.20;;;2.90;;
10719;SDS011;5411;58.386;15.560;2023-06-24T05:35:36;4.20;;;3.80;;
10719;SDS011;5411;58.386;15.560;2023-06-24T05:38:11;3.47;;;3.20;;
10719;SDS011;5411;58.386;15.560;2023-06-24T05:40:41;4.77;;;4.27;;
10719;SDS011;5411;58.386;15.560;2023-06-24T05:43:17;3.50;;;3.20;;
10719;SDS011;5411;58.386;15.560;2023-06-24T05:45:46;4.17;;;3.77;;
10719;SDS011;5411;58.386;15.560;2023-06-24T05:48:18;3.77;;;3.47;;
10719;SDS011;5411;58.386;15.560;2023-06-24T05:50:48;3.40;;;3.10;;
10719;SDS011;5411;58.386;15.560;2023-06-24T05:53:17;3.57;;;3.27;;
10719;SDS011;5411;58.386;15.560;2023-06-24T05:55:48;3.30;;;3.00;;
10719;SDS011;5411;58.386;15.560;2023-06-24T05:58:16;3.60;;;3.30;;
10719;SDS011;5411;58.386;15.560;2023-06-24T06:00:46;3.50;;;3.20;;
10719;SDS011;5411;58.386;15.560;2023-06-24T06:03:19;3.23;;;2.93;;
10719;SDS011;5411;58.386;15.560;2023-06-24T06:05:47;3.20;;;2.90;;
10719;SDS011;5411;58.386;15.560;2023-06-24T06:08:16;3.10;;;2.90;;
10719;SDS011;5411;58.386;15.560;2023-06-24T06:10:47;3.40;;;3.10;;
10719;SDS011;5411;58.386;15.560;2023-06-24T06:13:19;4.50;;;3.13;;
10719;SDS011;5411;58.386;15.560;2023-06-24T06:15:48;3.20;;;2.90;;
10719;SDS011;5411;58.386;15.560;2023-06-24T06:18:19;3.80;;;3.30;;
10719;SDS011;5411;58.386;15.560;2023-06-24T06:20:51;2.93;;;2.73;;
10719;SDS011;5411;58.386;15.560;2023-06-24T06:23:19;3.60;;;3.10;;
10719;SDS011;5411;58.386;15.560;2023-06-24T06:25:47;3.40;;;3.10;;
10719;SDS011;5411;58.386;15.560;2023-06-24T06:28:16;3.70;;;3.40;;
10719;SDS011;5411;58.386;15.560;2023-06-24T06:30:44;2.97;;;2.77;;
10719;SDS011;5411;58.386;15.560;2023-06-24T06:33:13;3.90;;;3.20;;
10719;SDS011;5411;58.386;15.560;2023-06-24T06:35:46;4.47;;;3.20;;
10719;SDS011;5411;58.386;15.560;2023-06-24T06:38:15;6.13;;;3.20;;
10719;SDS011;5411;58.386;15.560;2023-06-24T06:40:44;3.07;;;2.67;;
10719;SDS011;5411;58.386;15.560;2023-06-24T06:43:12;3.07;;;2.70;;
10719;SDS011;5411;58.386;15.560;2023-06-24T06:45:43;3.27;;;3.00;;
10719;SDS011;5411;58.386;15.560;2023-06-24T06:48:12;3.70;;;3.03;;
10719;SDS011;5411;58.386;15.560;2023-06-24T06:50:40;3.30;;;3.10;;
10719;SDS011;5411;58.386;15.560;2023-06-24T06:53:10;3.50;;;3.20;;
10719;SDS011;5411;58.386;15.560;2023-06-24T06:55:39;3.47;;;3.17;;
10719;SDS011;5411;58.386;15.560;2023-06-24T06:58:10;3.93;;;3.17;;
10719;SDS011;5411;58.386;15.560;2023-06-24T07:00:41;3.43;;;3.20;;
10719;SDS011;5411;58.386;15.560;2023-06-24T07:03:16;3.47;;;3.17;;
10719;SDS011;5411;58.386;15.560;2023-06-24T07:05:44;3.40;;;3.10;;
10719;SDS011;5411;58.386;15.560;2023-06-24T07:08:15;3.37;;;3.07;;
10719;SDS011;5411;58.386;15.560;2023-06-24T07:10:46;3.27;;;2.97;;
10719;SDS011;5411;58.386;15.560;2023-06-24T07:13:17;3.60;;;3.17;;
10719;SDS011;5411;58.386;15.560;2023-06-24T07:15:47;3.40;;;3.00;;
10719;SDS011;5411;58.386;15.560;2023-06-24T07:18:20;3.37;;;3.07;;
10719;SDS011;5411;58.386;15.560;2023-06-24T07:20:49;3.20;;;3.00;;
10719;SDS011;5411;58.386;15.560;2023-06-24T07:23:19;3.53;;;3.23;;
10719;SDS011;5411;58.386;15.560;2023-06-24T07:25:47;3.60;;;3.30;;
10719;SDS011;5411;58.386;15.560;2023-06-24T07:28:15;3.47;;;3.17;;
10719;SDS011;5411;58.386;15.560;2023-06-24T07:30:44;3.77;;;3.43;;
10719;SDS011;5411;58.386;15.560;2023-06-24T07:33:12;3.53;;;3.23;;
10719;SDS011;5411;58.386;15.560;2023-06-24T07:35:41;3.83;;;3.30;;
10719;SDS011;5411;58.386;15.560;2023-06-24T07:38:11;4.50;;;3.43;;
10719;SDS011;5411;58.386;15.560;2023-06-24T07:40:41;3.80;;;3.50;;
10719;SDS011;5411;58.386;15.560;2023-06-24T07:43:12;3.43;;;3.20;;
10719;SDS011;5411;58.386;15.560;2023-06-24T07:45:41;3.70;;;3.40;;
10719;SDS011;5411;58.386;15.560;2023-06-24T07:48:10;3.20;;;3.00;;
10719;SDS011;5411;58.386;15.560;2023-06-24T07:50:41;3.50;;;3.17;;
10719;SDS011;5411;58.386;15.560;2023-06-24T07:53:11;3.30;;;3.10;;
10719;SDS011;5411;58.386;15.560;2023-06-24T07:55:43;3.67;;;3.37;;
10719;SDS011;5411;58.386;15.560;2023-06-24T07:58:11;3.77;;;3.37;;
10719;SDS011;5411;58.386;15.560;2023-06-24T08:00:44;3.30;;;3.10;;
10719;SDS011;5411;58.386;15.560;2023-06-24T08:03:12;3.03;;;2.73;;
10719;SDS011;5411;58.386;15.560;2023-06-24T08:05:41;3.77;;;3.40;;
10719;SDS011;5411;58.386;15.560;2023-06-24T08:08:15;3.30;;;3.10;;
10719;SDS011;5411;58.386;15.560;2023-06-24T08:10:46;3.43;;;3.13;;
10719;SDS011;5411;58.386;15.560;2023-06-24T08:13:14;3.67;;;3.20;;
10719;SDS011;5411;58.386;15.560;2023-06-24T08:15:43;4.50;;;3.50;;
10719;SDS011;5411;58.386;15.560;2023-06-24T08:18:11;3.03;;;2.83;;
10719;SDS011;5411;58.386;15.560;2023-06-24T08:20:40;3.53;;;3.27;;
10719;SDS011;5411;58.386;15.560;2023-06-24T08:23:10;3.27;;;3.03;;
10719;SDS011;5411;58.386;15.560;2023-06-24T08:25:41;3.57;;;3.27;;
10719;SDS011;5411;58.386;15.560;2023-06-24T08:28:12;3.17;;;2.97;;
10719;SDS011;5411;58.386;15.560;2023-06-24T08:30:41;3.57;;;3.37;;
10719;SDS011;5411;58.386;15.560;2023-06-24T08:33:11;3.20;;;3.00;;
10719;SDS011;5411;58.386;15.560;2023-06-24T08:35:39;3.73;;;3.27;;
10719;SDS011;5411;58.386;15.560;2023-06-24T08:38:08;3.40;;;3.20;;
10719;SDS011;5411;58.386;15.560;2023-06-24T08:40:37;3.90;;;3.50;;
10719;SDS011;5411;58.386;15.560;2023-06-24T08:43:07;3.27;;;2.97;;
10719;SDS011;5411;58.386;15.560;2023-06-24T08:45:37;3.87;;;3.20;;
10719;SDS011;5411;58.386;15.560;2023-06-24T08:48:06;3.50;;;3.20;;
10719;SDS011;5411;58.386;15.560;2023-06-24T08:50:35;3.67;;;3.10;;
10719;SDS011;5411;58.386;15.560;2023-06-24T08:53:08;3.47;;;3.17;;
10719;SDS011;5411;58.386;15.560;2023-06-24T08:55:39;3.77;;;3.27;;
10719;SDS011;5411;58.386;15.560;2023-06-24T08:58:14;4.17;;;3.50;;
10719;SDS011;5411;58.386;15.560;2023-06-24T09:00:47;3.90;;;3.60;;
10719;SDS011;5411;58.386;15.560;2023-06-24T09:03:16;3.27;;;3.03;;
10719;SDS011;5411;58.386;15.560;2023-06-24T09:05:44;4.23;;;3.40;;
10719;SDS011;5411;58.386;15.560;2023-06-24T09:08:12;3.47;;;3.17;;
10719;SDS011;5411;58.386;15.560;2023-06-24T09:10:43;4.20;;;3.80;;
10719;SDS011;5411;58.386;15.560;2023-06-24T09:13:11;3.90;;;3.60;;
10719;SDS011;5411;58.386;15.560;2023-06-24T09:15:40;3.60;;;3.30;;
10719;SDS011;5411;58.386;15.560;2023-06-24T09:18:14;3.67;;;3.37;;
10719;SDS011;5411;58.386;15.560;2023-06-24T09:20:44;3.47;;;3.27;;
10719;SDS011;5411;58.386;15.560;2023-06-24T09:23:25;3.13;;;2.93;;
10719;SDS011;5411;58.386;15.560;2023-06-24T09:25:56;3.40;;;3.10;;
10719;SDS011;5411;58.386;15.560;2023-06-24T09:28:26;4.83;;;3.43;;
10719;SDS011;5411;58.386;15.560;2023-06-24T09:31:04;3.47;;;3.27;;
10719;SDS011;5411;58.386;15.560;2023-06-24T09:33:46;3.83;;;3.60;;
10719;SDS011;5411;58.386;15.560;2023-06-24T09:36:17;3.80;;;3.23;;
10719;SDS011;5411;58.386;15.560;2023-06-24T09:38:48;3.70;;;3.40;;
10719;SDS011;5411;58.386;15.560;2023-06-24T09:41:17;3.37;;;3.17;;
10719;SDS011;5411;58.386;15.560;2023-06-24T09:43:46;3.70;;;3.27;;
10719;SDS011;5411;58.386;15.560;2023-06-24T09:46:14;5.27;;;3.37;;
10719;SDS011;5411;58.386;15.560;2023-06-24T09:48:44;4.00;;;3.60;;
10719;SDS011;5411;58.386;15.560;2023-06-24T09:51:38;3.80;;;3.50;;
10719;SDS011;5411;58.386;15.560;2023-06-24T09:54:11;3.50;;;3.20;;
10719;SDS011;5411;58.386;15.560;2023-06-24T09:56:44;3.97;;;3.67;;
10719;SDS011;5411;58.386;15.560;2023-06-24T09:59:19;3.77;;;3.47;;
10719;SDS011;5411;58.386;15.560;2023-06-24T10:01:52;3.60;;;3.30;;
10719;SDS011;5411;58.386;15.560;2023-06-24T10:04:21;3.80;;;3.50;;
10719;SDS011;5411;58.386;15.560;2023-06-24T10:06:54;3.60;;;3.30;;
10719;SDS011;5411;58.386;15.560;2023-06-24T10:09:23;3.80;;;3.50;;
10719;SDS011;5411;58.386;15.560;2023-06-24T10:11:52;3.77;;;3.47;;
10719;SDS011;5411;58.386;15.560;2023-06-24T10:14:22;4.07;;;3.77;;
10719;SDS011;5411;58.386;15.560;2023-06-24T10:17:01;3.93;;;3.63;;
10719;SDS011;5411;58.386;15.560;2023-06-24T10:19:31;3.50;;;3.30;;
10719;SDS011;5411;58.386;15.560;2023-06-24T10:22:10;4.10;;;3.80;;
10719;SDS011;5411;58.386;15.560;2023-06-24T10:24:42;3.67;;;3.37;;
10719;SDS011;5411;58.386;15.560;2023-06-24T10:27:16;3.97;;;3.67;;
10719;SDS011;5411;58.386;15.560;2023-06-24T10:29:50;3.90;;;3.60;;
10719;SDS011;5411;58.386;15.560;2023-06-24T10:32:26;4.30;;;3.73;;
10719;SDS011;5411;58.386;15.560;2023-06-24T10:34:55;4.13;;;3.77;;
10719;SDS011;5411;58.386;15.560;2023-06-24T10:37:33;4.00;;;3.70;;
10719;SDS011;5411;58.386;15.560;2023-06-24T10:40:02;4.20;;;3.80;;
10719;SDS011;5411;58.386;15.560;2023-06-24T10:42:32;3.80;;;3.57;;
10719;SDS011;5411;58.386;15.560;2023-06-24T10:45:15;3.87;;;3.57;;
10719;SDS011;5411;58.386;15.560;2023-06-24T10:47:45;3.83;;;3.53;;
10719;SDS011;5411;58.386;15.560;2023-06-24T10:50:22;3.73;;;3.43;;
10719;SDS011;5411;58.386;15.560;2023-06-24T10:52:53;4.57;;;3.90;;
10719;SDS011;5411;58.386;15.560;2023-06-24T10:55:24;4.17;;;3.77;;
10719;SDS011;5411;58.386;15.560;2023-06-24T10:57:53;4.07;;;3.77;;
10719;SDS011;5411;58.386;15.560;2023-06-24T11:00:22;3.53;;;3.23;;
10719;SDS011;5411;58.386;15.560;2023-06-24T11:02:50;4.13;;;3.83;;
10719;SDS011;5411;58.386;15.560;2023-06-24T11:05:18;4.50;;;3.43;;
10719;SDS011;5411;58.386;15.560;2023-06-24T11:07:47;3.70;;;3.40;;
10719;SDS011;5411;58.386;15.560;2023-06-24T11:10:16;4.20;;;3.80;;
10719;SDS011;5411;58.386;15.560;2023-06-24T11:12:48;5.77;;;3.73;;
10719;SDS011;5411;58.386;15.560;2023-06-24T11:15:19;4.10;;;3.73;;
10719;SDS011;5411;58.386;15.560;2023-06-24T11:17:50;4.17;;;3.77;;
10719;SDS011;5411;58.386;15.560;2023-06-24T11:20:20;4.47;;;4.07;;
10719;SDS011;5411;58.386;15.560;2023-06-24T11:22:49;4.37;;;4.07;;
10719;SDS011;5411;58.386;15.560;2023-06-24T11:25:24;4.63;;;3.63;;
10719;SDS011;5411;58.386;15.560;2023-06-24T11:27:52;3.87;;;3.57;;
10719;SDS011;5411;58.386;15.560;2023-06-24T11:30:27;4.07;;;3.77;;
10719;SDS011;5411;58.386;15.560;2023-06-24T11:32:56;4.20;;;3.90;;
10719;SDS011;5411;58.386;15.560;2023-06-24T11:35:26;4.10;;;3.80;;
10719;SDS011;5411;58.386;15.560;2023-06-24T11:37:58;4.10;;;3.80;;
10719;SDS011;5411;58.386;15.560;2023-06-24T11:40:30;3.90;;;3.60;;
10719;SDS011;5411;58.386;15.560;2023-06-24T11:43:00;4.43;;;4.03;;
10719;SDS011;5411;58.386;15.560;2023-06-24T11:45:30;4.60;;;3.90;;
10719;SDS011;5411;58.386;15.560;2023-06-24T11:48:02;5.60;;;3.87;;
10719;SDS011;5411;58.386;15.560;2023-06-24T11:50:33;3.80;;;3.50;;
10719;SDS011;5411;58.386;15.560;2023-06-24T11:53:04;4.37;;;3.97;;
10719;SDS011;5411;58.386;15.560;2023-06-24T11:55:34;4.10;;;3.80;;
10719;SDS011;5411;58.386;15.560;2023-06-24T11:58:04;4.00;;;3.70;;
10719;SDS011;5411;58.386;15.560;2023-06-24T12:00:33;4.60;;;4.20;;
10719;SDS011;5411;58.386;15.560;2023-06-24T12:03:05;4.40;;;4.00;;
10719;SDS011;5411;58.386;15.560;2023-06-24T12:05:37;4.23;;;3.87;;
10719;SDS011;5411;58.386;15.560;2023-06-24T12:08:24;4.13;;;3.83;;
10719;SDS011;5411;58.386;15.560;2023-06-24T12:11:04;4.70;;;3.87;;
10719;SDS011;5411;58.386;15.560;2023-06-24T12:13:32;4.87;;;3.77;;
10719;SDS011;5411;58.386;15.560;2023-06-24T12:16:01;4.10;;;3.70;;
10719;SDS011;5411;58.386;15.560;2023-06-24T12:18:29;4.87;;;4.47;;
10719;SDS011;5411;58.386;15.560;2023-06-24T12:20:58;4.27;;;3.93;;
10719;SDS011;5411;58.386;15.560;2023-06-24T12:23:26;4.30;;;4.00;;
10719;SDS011;5411;58.386;15.560;2023-06-24T12:25:54;4.13;;;3.83;;
10719;SDS011;5411;58.386;15.560;2023-06-24T12:28:25;4.60;;;4.03;;
10719;SDS011;5411;58.386;15.560;2023-06-24T12:30:53;4.00;;;3.70;;
10719;SDS011;5411;58.386;15.560;2023-06-24T12:33:21;4.77;;;3.70;;
10719;SDS011;5411;58.386;15.560;2023-06-24T12:35:50;3.90;;;3.60;;
10719;SDS011;5411;58.386;15.560;2023-06-24T12:38:20;4.20;;;3.80;;
10719;SDS011;5411;58.386;15.560;2023-06-24T12:40:51;3.57;;;3.37;;
10719;SDS011;5411;58.386;15.560;2023-06-24T12:43:20;4.37;;;3.97;;
10719;SDS011;5411;58.386;15.560;2023-06-24T12:45:50;4.13;;;3.73;;
10719;SDS011;5411;58.386;15.560;2023-06-24T12:48:21;3.93;;;3.63;;
10719;SDS011;5411;58.386;15.560;2023-06-24T12:50:49;4.20;;;3.80;;
10719;SDS011;5411;58.386;15.560;2023-06-24T12:53:19;4.07;;;3.77;;
10719;SDS011;5411;58.386;15.560;2023-06-24T12:55:53;3.60;;;3.40;;
10719;SDS011;5411;58.386;15.560;2023-06-24T12:58:22;4.23;;;3.73;;
10719;SDS011;5411;58.386;15.560;2023-06-24T13:00:54;3.70;;;3.40;;
10719;SDS011;5411;58.386;15.560;2023-06-24T13:03:22;4.20;;;3.90;;
10719;SDS011;5411;58.386;15.560;2023-06-24T13:05:51;4.17;;;3.80;;
10719;SDS011;5411;58.386;15.560;2023-06-24T13:08:20;4.10;;;3.80;;
10719;SDS011;5411;58.386;15.560;2023-06-24T13:10:50;4.30;;;3.90;;
10719;SDS011;5411;58.386;15.560;2023-06-24T13:13:20;4.53;;;4.17;;
10719;SDS011;5411;58.386;15.560;2023-06-24T13:15:51;4.37;;;3.53;;
10719;SDS011;5411;58.386;15.560;2023-06-24T13:18:22;4.30;;;4.00;;
10719;SDS011;5411;58.386;15.560;2023-06-24T13:20:52;4.43;;;3.80;;
10719;SDS011;5411;58.386;15.560;2023-06-24T13:23:32;4.90;;;4.17;;
10719;SDS011;5411;58.386;15.560;2023-06-24T13:26:04;4.80;;;4.10;;
10719;SDS011;5411;58.386;15.560;2023-06-24T13:28:32;4.30;;;3.90;;
10719;SDS011;5411;58.386;15.560;2023-06-24T13:31:00;5.63;;;4.40;;
10719;SDS011;5411;58.386;15.560;2023-06-24T13:33:33;4.93;;;4.03;;
10719;SDS011;5411;58.386;15.560;2023-06-24T13:36:08;4.33;;;3.97;;
10719;SDS011;5411;58.386;15.560;2023-06-24T13:38:56;4.30;;;3.93;;
10719;SDS011;5411;58.386;15.560;2023-06-24T13:41:33;5.70;;;4.20;;
10719;SDS011;5411;58.386;15.560;2023-06-24T13:44:03;8.13;;;4.07;;
10719;SDS011;5411;58.386;15.560;2023-06-24T13:46:32;4.30;;;3.93;;
10719;SDS011;5411;58.386;15.560;2023-06-24T13:49:02;4.03;;;3.73;;
10719;SDS011;5411;58.386;15.560;2023-06-24T13:51:32;4.80;;;3.73;;
10719;SDS011;5411;58.386;15.560;2023-06-24T13:54:03;4.47;;;4.10;;
10719;SDS011;5411;58.386;15.560;2023-06-24T13:56:32;4.37;;;4.07;;
10719;SDS011;5411;58.386;15.560;2023-06-24T13:59:04;4.37;;;3.87;;
10719;SDS011;5411;58.386;15.560;2023-06-24T14:01:32;4.00;;;3.70;;
10719;SDS011;5411;58.386;15.560;2023-06-24T14:04:04;3.83;;;3.53;;
10719;SDS011;5411;58.386;15.560;2023-06-24T14:06:32;4.27;;;3.97;;
10719;SDS011;5411;58.386;15.560;2023-06-24T14:09:01;4.50;;;4.10;;
10719;SDS011;5411;58.386;15.560;2023-06-24T14:11:29;5.40;;;4.30;;
10719;SDS011;5411;58.386;15.560;2023-06-24T14:13:57;4.00;;;3.70;;
10719;SDS011;5411;58.386;15.560;2023-06-24T14:16:26;3.90;;;3.60;;
10719;SDS011;5411;58.386;15.560;2023-06-24T14:18:54;3.83;;;3.53;;
10719;SDS011;5411;58.386;15.560;2023-06-24T14:21:27;3.90;;;3.60;;
10719;SDS011;5411;58.386;15.560;2023-06-24T14:24:00;3.80;;;3.50;;
10719;SDS011;5411;58.386;15.560;2023-06-24T14:26:42;4.00;;;3.63;;
10719;SDS011;5411;58.386;15.560;2023-06-24T14:29:10;4.07;;;3.77;;
10719;SDS011;5411;58.386;15.560;2023-06-24T14:31:40;3.90;;;3.53;;
10719;SDS011;5411;58.386;15.560;2023-06-24T14:34:11;4.57;;;3.90;;
10719;SDS011;5411;58.386;15.560;2023-06-24T14:36:42;3.90;;;3.57;;
10719;SDS011;5411;58.386;15.560;2023-06-24T14:39:15;3.90;;;3.60;;
10719;SDS011;5411;58.386;15.560;2023-06-24T14:41:44;4.07;;;3.53;;
10719;SDS011;5411;58.386;15.560;2023-06-24T14:44:13;4.07;;;3.77;;
10719;SDS011;5411;58.386;15.560;2023-06-24T14:46:42;4.50;;;4.20;;
10719;SDS011;5411;58.386;15.560;2023-06-24T14:49:14;4.70;;;4.30;;
10719;SDS011;5411;58.386;15.560;2023-06-24T14:51:45;5.40;;;4.10;;
10719;SDS011;5411;58.386;15.560;2023-06-24T14:54:15;4.37;;;4.00;;
10719;SDS011;5411;58.386;15.560;2023-06-24T14:56:45;4.10;;;3.80;;
10719;SDS011;5411;58.386;15.560;2023-06-24T14:59:14;3.97;;;3.67;;
10719;SDS011;5411;58.386;15.560;2023-06-24T15:01:42;4.60;;;4.20;;
10719;SDS011;5411;58.386;15.560;2023-06-24T15:04:11;4.37;;;3.97;;
10719;SDS011;5411;58.386;15.560;2023-06-24T15:06:39;4.50;;;3.70;;
10719;SDS011;5411;58.386;15.560;2023-06-24T15:09:13;3.97;;;3.60;;
10719;SDS011;5411;58.386;15.560;2023-06-24T15:11:43;3.93;;;3.63;;